Time,TemperatureF,DewpointF,PressureIn,WindDirection,WindDirectionDegrees,WindSpeedMPH,WindSpeedGustMPH,Humidity,HourlyPrecipIn,Conditions,Clouds,dailyrainin,SoftwareType,DateUTC
2013-01-26 00:01:00,34.0,27.0,-100.00,SW,225,10.0,18.0,75,-99.99,,,-99.99,,2013-01-26 07:01:00,
2013-01-26 00:11:00,34.0,27.0,-100.00,SW,219,9.0,14.0,74,-99.99,,,-99.99,,2013-01-26 07:11:00,
2013-01-26 00:21:00,34.0,27.0,-100.00,SW,219,9.0,14.0,74,-99.99,,,-99.99,,2013-01-26 07:21:00,
2013-01-26 00:33:00,34.0,27.0,-100.00,SW,219,9.0,14.0,74,-99.99,,,-99.99,,2013-01-26 07:33:00,
2013-01-26 00:41:00,33.0,27.0,-100.00,SW,214,8.0,12.0,75,-99.99,,,-99.99,,2013-01-26 07:41:00,
2013-01-26 00:52:00,33.0,27.0,-100.00,SW,214,8.0,12.0,75,-99.99,,,-99.99,,2013-01-26 07:52:00,
2013-01-26 01:02:00,32.0,27.0,-100.00,SW,215,9.0,13.0,80,-99.99,,,-99.99,,2013-01-26 08:02:00,
2013-01-26 01:11:00,32.0,27.0,-100.00,SW,216,10.0,14.0,79,-99.99,,,-99.99,,2013-01-26 08:11:00,
2013-01-26 01:21:00,32.0,27.0,-100.00,SW,216,10.0,14.0,79,-99.99,,,-99.99,,2013-01-26 08:21:00,
2013-01-26 01:31:00,32.0,27.0,-100.00,SW,216,10.0,14.0,79,-99.99,,,-99.99,,2013-01-26 08:31:00,
2013-01-26 01:41:00,31.0,27.0,-100.00,SW,217,12.0,18.0,85,-99.99,,,-99.99,,2013-01-26 08:41:00,
2013-01-26 01:54:00,31.0,27.0,-100.00,SW,218,11.0,17.0,82,-99.99,,,-99.99,,2013-01-26 08:54:00,
2013-01-26 02:02:00,31.0,27.0,-100.00,SW,218,11.0,17.0,82,-99.99,,,-99.99,,2013-01-26 09:02:00,
2013-01-26 02:11:00,31.0,28.0,-100.00,SSW,205,15.0,21.0,86,-99.99,,,-99.99,,2013-01-26 09:11:00,
2013-01-26 02:22:00,31.0,28.0,-100.00,SSW,205,15.0,21.0,86,-99.99,,,-99.99,,2013-01-26 09:22:00,
2013-01-26 02:31:00,31.0,28.0,-100.00,SSW,205,15.0,21.0,86,-99.99,,,-99.99,,2013-01-26 09:31:00,
2013-01-26 02:42:00,31.0,28.0,-100.00,South,182,9.0,16.0,90,-99.99,,,-99.99,,2013-01-26 09:42:00,
2013-01-26 02:52:00,31.0,28.0,-100.00,South,182,9.0,16.0,90,-99.99,,,-99.99,,2013-01-26 09:52:00,
2013-01-26 03:01:00,31.0,28.0,-100.00,South,182,8.0,13.0,89,-99.99,,,-99.99,,2013-01-26 10:01:00,
2013-01-26 03:11:00,31.0,28.0,-100.00,SSW,192,9.0,20.0,90,-99.99,,,-99.99,,2013-01-26 10:11:00,
2013-01-26 03:21:00,31.0,28.0,-100.00,SSW,192,9.0,20.0,90,-99.99,,,-99.99,,2013-01-26 10:21:00,
2013-01-26 03:31:00,31.0,28.0,-100.00,SSW,192,9.0,20.0,90,-99.99,,,-99.99,,2013-01-26 10:31:00,
2013-01-26 03:42:00,30.0,28.0,-100.00,SSW,203,12.0,19.0,91,-99.99,,,-99.99,,2013-01-26 10:42:00,
2013-01-26 03:52:00,30.0,28.0,-100.00,SSW,203,12.0,19.0,91,-99.99,,,-99.99,,2013-01-26 10:52:00,
2013-01-26 04:01:00,32.0,27.0,-100.00,SSW,208,12.0,20.0,81,-99.99,,,-99.99,,2013-01-26 11:01:00,
2013-01-26 04:12:00,32.0,27.0,-100.00,SSW,213,10.0,17.0,79,-99.99,,,-99.99,,2013-01-26 11:12:00,
2013-01-26 04:22:00,32.0,27.0,-100.00,SSW,213,10.0,17.0,79,-99.99,,,-99.99,,2013-01-26 11:22:00,
2013-01-26 04:32:00,32.0,27.0,-100.00,SSW,213,10.0,17.0,79,-99.99,,,-99.99,,2013-01-26 11:32:00,
2013-01-26 04:42:00,32.0,26.0,-100.00,SW,223,5.0,10.0,78,-99.99,,,-99.99,,2013-01-26 11:42:00,
2013-01-26 04:52:00,32.0,26.0,-100.00,SW,223,5.0,10.0,78,-99.99,,,-99.99,,2013-01-26 11:52:00,
2013-01-26 05:02:00,32.0,27.0,-100.00,SSW,207,9.0,16.0,80,-99.99,,,-99.99,,2013-01-26 12:02:00,
2013-01-26 05:12:00,32.0,26.0,-100.00,SW,218,5.0,11.0,79,-99.99,,,-99.99,,2013-01-26 12:12:00,
2013-01-26 05:22:00,32.0,26.0,-100.00,SW,218,5.0,11.0,79,-99.99,,,-99.99,,2013-01-26 12:22:00,
2013-01-26 05:33:00,32.0,26.0,-100.00,SW,218,5.0,11.0,79,-99.99,,,-99.99,,2013-01-26 12:33:00,
2013-01-26 05:42:00,32.0,27.0,-100.00,SSW,209,8.0,12.0,81,-99.99,,,-99.99,,2013-01-26 12:42:00,
2013-01-26 05:53:00,32.0,27.0,-100.00,SSW,209,8.0,12.0,81,-99.99,,,-99.99,,2013-01-26 12:53:00,
2013-01-26 06:03:00,32.0,26.0,-100.00,SSW,204,9.0,14.0,80,-99.99,,,-99.99,,2013-01-26 13:03:00,
2013-01-26 06:12:00,32.0,26.0,-100.00,SW,217,7.0,15.0,78,-99.99,,,-99.99,,2013-01-26 13:12:00,
2013-01-26 06:22:00,32.0,26.0,-100.00,SW,217,7.0,15.0,78,-99.99,,,-99.99,,2013-01-26 13:22:00,
2013-01-26 06:32:00,32.0,26.0,-100.00,SW,217,7.0,15.0,78,-99.99,,,-99.99,,2013-01-26 13:32:00,
2013-01-26 06:42:00,32.0,27.0,-100.00,SSW,207,11.0,18.0,80,-99.99,,,-99.99,,2013-01-26 13:42:00,
2013-01-26 06:53:00,32.0,27.0,-100.00,SSW,207,11.0,18.0,80,-99.99,,,-99.99,,2013-01-26 13:53:00,
2013-01-26 07:02:00,32.0,26.0,-100.00,SSW,212,10.0,16.0,78,-99.99,,,-99.99,,2013-01-26 14:02:00,
2013-01-26 07:11:00,32.0,26.0,-100.00,SSW,210,10.0,16.0,78,-99.99,,,-99.99,,2013-01-26 14:11:00,
2013-01-26 07:21:00,32.0,26.0,-100.00,SSW,210,10.0,16.0,78,-99.99,,,-99.99,,2013-01-26 14:21:00,
2013-01-26 07:31:00,32.0,26.0,-100.00,SSW,210,10.0,16.0,78,-99.99,,,-99.99,,2013-01-26 14:31:00,
2013-01-26 07:42:00,32.0,27.0,-100.00,SSW,202,10.0,17.0,80,-99.99,,,-99.99,,2013-01-26 14:42:00,
2013-01-26 07:53:00,32.0,27.0,-100.00,SSW,202,10.0,17.0,80,-99.99,,,-99.99,,2013-01-26 14:53:00,
2013-01-26 08:02:00,32.0,27.0,-100.00,SSW,200,11.0,19.0,81,-99.99,,,-99.99,,2013-01-26 15:02:00,
2013-01-26 08:12:00,32.0,27.0,-100.00,SSW,200,14.0,22.0,82,-99.99,,,-99.99,,2013-01-26 15:12:00,
2013-01-26 08:22:00,32.0,27.0,-100.00,SSW,200,14.0,22.0,82,-99.99,,,-99.99,,2013-01-26 15:22:00,
2013-01-26 08:32:00,32.0,27.0,-100.00,SSW,200,14.0,22.0,82,-99.99,,,-99.99,,2013-01-26 15:32:00,
2013-01-26 08:42:00,32.0,28.0,-100.00,SSW,204,13.0,22.0,85,-99.99,,,-99.99,,2013-01-26 15:42:00,
2013-01-26 08:53:00,32.0,28.0,-100.00,SSW,204,13.0,22.0,85,-99.99,,,-99.99,,2013-01-26 15:53:00,
2013-01-26 09:02:00,32.0,28.0,-100.00,SSW,200,16.0,27.0,85,-99.99,,,-99.99,,2013-01-26 16:02:00,
2013-01-26 09:12:00,32.0,28.0,-100.00,SSW,198,17.0,25.0,83,-99.99,,,-99.99,,2013-01-26 16:12:00,
2013-01-26 09:21:00,32.0,28.0,-100.00,SSW,198,17.0,25.0,83,-99.99,,,-99.99,,2013-01-26 16:21:00,
2013-01-26 09:32:00,32.0,28.0,-100.00,SSW,198,17.0,25.0,83,-99.99,,,-99.99,,2013-01-26 16:32:00,
2013-01-26 09:42:00,33.0,28.0,-100.00,SSW,198,15.0,25.0,80,-99.99,,,-99.99,,2013-01-26 16:42:00,
2013-01-26 09:53:00,33.0,28.0,-100.00,SSW,198,15.0,25.0,80,-99.99,,,-99.99,,2013-01-26 16:53:00,
2013-01-26 10:03:00,34.0,28.0,-100.00,SSW,199,14.0,22.0,79,-99.99,,,-99.99,,2013-01-26 17:03:00,
2013-01-26 10:12:00,34.0,28.0,-100.00,SSW,200,16.0,25.0,77,-99.99,,,-99.99,,2013-01-26 17:12:00,
2013-01-26 10:22:00,34.0,28.0,-100.00,SSW,200,16.0,25.0,77,-99.99,,,-99.99,,2013-01-26 17:22:00,
2013-01-26 10:32:00,34.0,28.0,-100.00,SSW,200,16.0,25.0,77,-99.99,,,-99.99,,2013-01-26 17:32:00,
2013-01-26 10:42:00,35.0,28.0,-100.00,SSW,200,15.0,22.0,75,-99.99,,,-99.99,,2013-01-26 17:42:00,
2013-01-26 10:53:00,35.0,28.0,-100.00,SSW,200,15.0,22.0,75,-99.99,,,-99.99,,2013-01-26 17:53:00,
2013-01-26 11:02:00,35.0,28.0,-100.00,SSW,196,12.0,20.0,74,-99.99,,,-99.99,,2013-01-26 18:02:00,
2013-01-26 11:11:00,35.0,28.0,-100.00,South,191,11.0,19.0,74,-99.99,,,-99.99,,2013-01-26 18:11:00,
2013-01-26 11:22:00,35.0,28.0,-100.00,South,191,11.0,19.0,74,-99.99,,,-99.99,,2013-01-26 18:22:00,
2013-01-26 11:32:00,35.0,28.0,-100.00,South,191,11.0,19.0,74,-99.99,,,-99.99,,2013-01-26 18:32:00,
2013-01-26 11:41:00,36.0,28.0,-100.00,SW,214,4.0,14.0,71,-99.99,,,-99.99,,2013-01-26 18:41:00,
2013-01-26 11:52:00,36.0,28.0,-100.00,SW,214,4.0,14.0,71,-99.99,,,-99.99,,2013-01-26 18:52:00,
2013-01-26 12:03:00,37.0,28.0,-100.00,West,262,2.0,8.0,68,-99.99,,,-99.99,,2013-01-26 19:03:00,
2013-01-26 12:11:00,38.0,28.0,-100.00,West,270,2.0,9.0,67,-99.99,,,-99.99,,2013-01-26 19:11:00,
2013-01-26 12:22:00,38.0,28.0,-100.00,West,270,2.0,9.0,67,-99.99,,,-99.99,,2013-01-26 19:22:00,
2013-01-26 12:32:00,38.0,28.0,-100.00,West,270,2.0,9.0,67,-99.99,,,-99.99,,2013-01-26 19:32:00,
2013-01-26 12:42:00,38.0,28.0,-100.00,SSW,206,1.0,6.0,68,-99.99,,,-99.99,,2013-01-26 19:42:00,
2013-01-26 12:52:00,38.0,28.0,-100.00,SSW,206,1.0,6.0,68,-99.99,,,-99.99,,2013-01-26 19:52:00,
2013-01-26 13:02:00,38.0,28.0,-100.00,South,179,3.0,8.0,68,-99.99,,,-99.99,,2013-01-26 20:02:00,
2013-01-26 13:11:00,37.0,28.0,-100.00,SSE,167,5.0,12.0,69,-99.99,,,-99.99,,2013-01-26 20:11:00,
2013-01-26 13:21:00,37.0,28.0,-100.00,SSE,167,5.0,12.0,69,-99.99,,,-99.99,,2013-01-26 20:21:00,
2013-01-26 13:32:00,37.0,28.0,-100.00,SSE,167,5.0,12.0,69,-99.99,,,-99.99,,2013-01-26 20:32:00,
2013-01-26 13:41:00,36.0,28.0,-100.00,South,181,4.0,11.0,72,-99.99,,,-99.99,,2013-01-26 20:41:00,
2013-01-26 13:52:00,36.0,28.0,-100.00,South,181,4.0,11.0,72,-99.99,,,-99.99,,2013-01-26 20:52:00,
2013-01-26 14:02:00,36.0,28.0,-100.00,South,185,5.0,12.0,73,-99.99,,,-99.99,,2013-01-26 21:02:00,
2013-01-26 14:12:00,35.0,28.0,-100.00,SSW,193,4.0,10.0,74,-99.99,,,-99.99,,2013-01-26 21:12:00,
2013-01-26 14:22:00,35.0,28.0,-100.00,SSW,193,4.0,10.0,74,-99.99,,,-99.99,,2013-01-26 21:22:00,
2013-01-26 14:31:00,35.0,28.0,-100.00,SSW,193,4.0,10.0,74,-99.99,,,-99.99,,2013-01-26 21:31:00,
2013-01-26 14:42:00,35.0,28.0,-100.00,SSW,195,5.0,10.0,74,-99.99,,,-99.99,,2013-01-26 21:42:00,
2013-01-26 14:52:00,35.0,28.0,-100.00,SSW,195,5.0,10.0,74,-99.99,,,-99.99,,2013-01-26 21:52:00,
2013-01-26 15:01:00,35.0,28.0,-100.00,SSW,199,5.0,8.0,75,-99.99,,,-99.99,,2013-01-26 22:01:00,
2013-01-26 15:11:00,35.0,28.0,-100.00,SSW,201,3.0,6.0,74,-99.99,,,-99.99,,2013-01-26 22:11:00,
2013-01-26 15:21:00,35.0,28.0,-100.00,SSW,201,3.0,6.0,74,-99.99,,,-99.99,,2013-01-26 22:21:00,
2013-01-26 15:31:00,35.0,28.0,-100.00,SSW,201,3.0,6.0,74,-99.99,,,-99.99,,2013-01-26 22:31:00,
2013-01-26 15:42:00,35.0,28.0,-100.00,SSW,193,3.0,7.0,74,-99.99,,,-99.99,,2013-01-26 22:42:00,
2013-01-26 15:52:00,35.0,28.0,-100.00,SSW,193,3.0,7.0,74,-99.99,,,-99.99,,2013-01-26 22:52:00,
2013-01-26 16:01:00,35.0,28.0,-100.00,SSW,198,4.0,8.0,77,-99.99,,,-99.99,,2013-01-26 23:01:00,
2013-01-26 16:11:00,34.0,29.0,-100.00,SSW,202,4.0,8.0,80,-99.99,,,-99.99,,2013-01-26 23:11:00,
2013-01-26 16:21:00,34.0,29.0,-100.00,SSW,202,4.0,8.0,80,-99.99,,,-99.99,,2013-01-26 23:21:00,
2013-01-26 16:32:00,34.0,29.0,-100.00,SSW,202,4.0,8.0,80,-99.99,,,-99.99,,2013-01-26 23:32:00,
2013-01-26 16:41:00,33.0,30.0,-100.00,West,271,1.0,3.0,87,-99.99,,,-99.99,,2013-01-26 23:41:00,
2013-01-26 16:52:00,33.0,30.0,-100.00,West,271,1.0,3.0,87,-99.99,,,-99.99,,2013-01-26 23:52:00,
2013-01-26 17:02:00,33.0,31.0,-100.00,WNW,288,0.0,2.0,90,-99.99,,,-99.99,,2013-01-27 00:02:00,
2013-01-26 17:11:00,32.0,30.0,-100.00,SW,233,2.0,4.0,92,-99.99,,,-99.99,,2013-01-27 00:11:00,
2013-01-26 17:21:00,32.0,30.0,-100.00,SW,233,2.0,4.0,92,-99.99,,,-99.99,,2013-01-27 00:21:00,
2013-01-26 17:31:00,32.0,30.0,-100.00,SW,233,2.0,4.0,92,-99.99,,,-99.99,,2013-01-27 00:31:00,
2013-01-26 17:41:00,32.0,30.0,-100.00,South,187,3.0,6.0,94,-99.99,,,-99.99,,2013-01-27 00:41:00,
2013-01-26 17:52:00,32.0,30.0,-100.00,South,187,3.0,6.0,94,-99.99,,,-99.99,,2013-01-27 00:52:00,
2013-01-26 18:01:00,32.0,30.0,-100.00,South,178,4.0,9.0,94,-99.99,,,-99.99,,2013-01-27 01:01:00,
2013-01-26 18:11:00,32.0,30.0,-100.00,South,184,6.0,12.0,90,-99.99,,,-99.99,,2013-01-27 01:11:00,
2013-01-26 18:22:00,32.0,30.0,-100.00,South,184,6.0,12.0,90,-99.99,,,-99.99,,2013-01-27 01:22:00,
2013-01-26 18:32:00,32.0,30.0,-100.00,South,184,6.0,12.0,90,-99.99,,,-99.99,,2013-01-27 01:32:00,
2013-01-26 18:41:00,33.0,29.0,-100.00,SSW,206,9.0,16.0,85,-99.99,,,-99.99,,2013-01-27 01:41:00,
2013-01-26 18:52:00,33.0,29.0,-100.00,SSW,206,9.0,16.0,85,-99.99,,,-99.99,,2013-01-27 01:52:00,
2013-01-26 19:01:00,32.0,30.0,-100.00,NNW,333,5.0,8.0,89,-99.99,,,-99.99,,2013-01-27 02:01:00,
2013-01-26 19:11:00,31.0,30.0,-100.00,NW,319,3.0,7.0,97,-99.99,,,-99.99,,2013-01-27 02:11:00,
2013-01-26 19:21:00,31.0,30.0,-100.00,NW,319,3.0,7.0,97,-99.99,,,-99.99,,2013-01-27 02:21:00,
2013-01-26 19:31:00,31.0,30.0,-100.00,NW,319,3.0,7.0,97,-99.99,,,-99.99,,2013-01-27 02:31:00,
2013-01-26 19:41:00,32.0,30.0,-100.00,SW,215,2.0,5.0,93,-99.99,,,-99.99,,2013-01-27 02:41:00,
2013-01-26 19:52:00,32.0,30.0,-100.00,SW,215,2.0,5.0,93,-99.99,,,-99.99,,2013-01-27 02:52:00,
2013-01-26 20:01:00,32.0,30.0,-100.00,SW,215,2.0,5.0,93,-99.99,,,-99.99,,2013-01-27 03:01:00,
2013-01-26 20:11:00,31.0,30.0,-100.00,North,353,3.0,7.0,95,-99.99,,,-99.99,,2013-01-27 03:11:00,
2013-01-26 20:21:00,31.0,30.0,-100.00,North,353,3.0,7.0,95,-99.99,,,-99.99,,2013-01-27 03:21:00,
2013-01-26 20:31:00,31.0,30.0,-100.00,North,353,3.0,7.0,95,-99.99,,,-99.99,,2013-01-27 03:31:00,
2013-01-26 20:41:00,31.0,30.0,-100.00,SSE,155,3.0,5.0,98,-99.99,,,-99.99,,2013-01-27 03:41:00,
2013-01-26 20:52:00,31.0,30.0,-100.00,SSE,155,3.0,5.0,98,-99.99,,,-99.99,,2013-01-27 03:52:00,
2013-01-26 21:01:00,31.0,30.0,-100.00,South,182,3.0,5.0,98,-99.99,,,-99.99,,2013-01-27 04:01:00,
2013-01-26 21:11:00,31.0,30.0,-100.00,South,179,3.0,5.0,96,-99.99,,,-99.99,,2013-01-27 04:11:00,
2013-01-26 21:21:00,31.0,30.0,-100.00,South,179,3.0,5.0,96,-99.99,,,-99.99,,2013-01-27 04:21:00,
2013-01-26 21:31:00,31.0,30.0,-100.00,South,179,3.0,5.0,96,-99.99,,,-99.99,,2013-01-27 04:31:00,
2013-01-26 21:41:00,32.0,30.0,-100.00,SSE,160,1.0,3.0,92,-99.99,,,-99.99,,2013-01-27 04:41:00,
2013-01-26 21:52:00,32.0,30.0,-100.00,SSE,160,1.0,3.0,92,-99.99,,,-99.99,,2013-01-27 04:52:00,
2013-01-26 22:03:00,31.0,30.0,-100.00,SE,140,2.0,4.0,94,-99.99,,,-99.99,,2013-01-27 05:03:00,
2013-01-26 22:11:00,31.0,30.0,-100.00,SSE,148,2.0,4.0,95,-99.99,,,-99.99,,2013-01-27 05:11:00,
2013-01-26 22:22:00,31.0,30.0,-100.00,SSE,148,2.0,4.0,95,-99.99,,,-99.99,,2013-01-27 05:22:00,
2013-01-26 22:31:00,31.0,30.0,-100.00,SSE,148,2.0,4.0,95,-99.99,,,-99.99,,2013-01-27 05:31:00,
2013-01-26 22:41:00,31.0,30.0,-100.00,South,178,3.0,3.0,96,-99.99,,,-99.99,,2013-01-27 05:41:00,
2013-01-26 22:52:00,31.0,30.0,-100.00,South,178,3.0,3.0,96,-99.99,,,-99.99,,2013-01-27 05:52:00,
2013-01-26 23:01:00,30.0,30.0,-100.00,SSE,161,3.0,4.0,96,-99.99,,,-99.99,,2013-01-27 06:01:00,
2013-01-26 23:11:00,30.0,29.0,-100.00,SE,138,1.0,3.0,96,-99.99,,,-99.99,,2013-01-27 06:11:00,
2013-01-26 23:21:00,30.0,29.0,-100.00,SE,138,1.0,3.0,96,-99.99,,,-99.99,,2013-01-27 06:21:00,
2013-01-26 23:31:00,30.0,29.0,-100.00,SE,138,1.0,3.0,96,-99.99,,,-99.99,,2013-01-27 06:31:00,
2013-01-26 23:41:00,30.0,30.0,-100.00,SSE,156,3.0,5.0,97,-99.99,,,-99.99,,2013-01-27 06:41:00,
2013-01-26 23:52:00,30.0,30.0,-100.00,SSE,156,3.0,5.0,97,-99.99,,,-99.99,,2013-01-27 06:52:00,